createdAt,value
2018-03-04T00:02:01.268Z,-5.50
2018-03-04T00:04:29.089Z,-5.30
2018-03-04T00:06:56.789Z,-5.40
2018-03-04T00:09:23.852Z,-5.50
2018-03-04T00:11:51.827Z,-5.40
2018-03-04T00:14:18.778Z,-5.50
2018-03-04T00:16:46.526Z,-5.50
2018-03-04T00:19:13.481Z,-5.40
2018-03-04T00:21:40.430Z,-5.50
2018-03-04T00:24:08.413Z,-5.50
2018-03-04T00:26:35.352Z,-5.30
2018-03-04T00:29:02.264Z,-5.50
2018-03-04T00:31:30.225Z,-5.50
2018-03-04T00:33:57.143Z,-5.50
2018-03-04T00:36:24.077Z,-5.60
2018-03-04T00:38:51.769Z,-5.60
2018-03-04T00:41:22.582Z,-5.50
2018-03-04T00:43:50.369Z,-5.50
2018-03-04T00:46:17.314Z,-5.40
2018-03-04T00:48:45.796Z,-5.40
2018-03-04T00:51:13.652Z,-5.60
2018-03-04T00:53:40.584Z,-5.60
2018-03-04T00:56:09.275Z,-5.70
2018-03-04T00:58:36.200Z,-5.50
2018-03-04T01:01:03.892Z,-5.70
2018-03-04T01:03:31.728Z,-5.50
2018-03-04T01:05:59.428Z,-5.70
2018-03-04T01:08:27.261Z,-5.50
2018-03-04T01:10:54.996Z,-5.70
2018-03-04T01:13:21.925Z,-5.70
2018-03-04T01:15:48.861Z,-5.70
2018-03-04T01:18:15.804Z,-5.70
2018-03-04T01:20:43.680Z,-5.80
2018-03-04T01:23:14.276Z,-5.70
2018-03-04T01:25:41.196Z,-5.70
2018-03-04T01:28:08.111Z,-5.60
2018-03-04T01:30:35.056Z,-5.60
2018-03-04T01:33:01.977Z,-5.70
2018-03-04T01:35:28.908Z,-5.70
2018-03-04T01:37:55.829Z,-5.40
2018-03-04T01:40:23.521Z,-5.60
2018-03-04T01:42:50.436Z,-5.70
2018-03-04T01:45:18.132Z,-5.40
2018-03-04T01:47:45.040Z,-5.50
2018-03-04T01:50:12.771Z,-5.40
2018-03-04T01:52:39.684Z,-5.70
2018-03-04T01:55:06.616Z,-5.60
2018-03-04T01:57:33.542Z,-5.60
2018-03-04T02:00:00.484Z,-5.60
2018-03-04T02:02:27.398Z,-5.70
2018-03-04T02:04:54.332Z,-5.70
2018-03-04T02:07:21.249Z,-5.60
2018-03-04T02:09:48.178Z,-5.40
2018-03-04T02:12:15.093Z,-5.60
2018-03-04T02:14:42.784Z,-5.50
2018-03-04T02:17:09.719Z,-5.50
2018-03-04T02:19:37.561Z,-5.70
2018-03-04T02:22:05.262Z,-5.70
2018-03-04T02:24:32.176Z,-5.50
2018-03-04T02:26:59.869Z,-5.80
2018-03-04T02:29:26.781Z,-5.70
2018-03-04T02:31:54.481Z,-5.90
2018-03-04T02:34:21.405Z,-5.90
2018-03-04T02:36:48.337Z,-5.90
2018-03-04T02:39:17.007Z,-5.80
2018-03-04T02:41:44.707Z,-5.80
2018-03-04T02:44:11.624Z,-5.60
2018-03-04T02:46:39.317Z,-5.80
2018-03-04T02:49:06.232Z,-5.70
2018-03-04T02:51:33.166Z,-5.70
2018-03-04T02:54:00.856Z,-5.90
2018-03-04T02:56:27.787Z,-5.80
2018-03-04T02:58:55.460Z,-5.90
2018-03-04T03:01:22.389Z,-5.70
2018-03-04T03:03:50.070Z,-5.80
2018-03-04T03:06:17.003Z,-5.50
2018-03-04T03:08:43.912Z,-5.80
2018-03-04T03:11:10.848Z,-5.90
2018-03-04T03:13:37.757Z,-5.90
2018-03-04T03:16:04.693Z,-5.80
2018-03-04T03:18:31.605Z,-5.90
2018-03-04T03:20:59.305Z,-5.90
2018-03-04T03:23:26.221Z,-5.70
2018-03-04T03:25:53.934Z,-5.70
2018-03-04T03:28:20.850Z,-5.80
2018-03-04T03:30:47.786Z,-5.70
2018-03-04T03:33:14.705Z,-5.50
2018-03-04T03:35:42.409Z,-5.70
2018-03-04T03:38:09.321Z,-5.80
2018-03-04T03:40:37.016Z,-5.90
2018-03-04T03:43:03.941Z,-5.90
2018-03-04T03:45:30.853Z,-6.10
2018-03-04T03:47:57.775Z,-5.70
2018-03-04T03:50:24.706Z,-5.90
2018-03-04T03:52:51.611Z,-6.10
2018-03-04T03:55:18.547Z,-5.90
2018-03-04T03:57:46.236Z,-6.00
2018-03-04T04:00:13.168Z,-6.10
2018-03-04T04:02:40.076Z,-6.00
2018-03-04T04:05:07.016Z,-6.10
2018-03-04T04:07:33.935Z,-6.10
2018-03-04T04:10:00.875Z,-6.10
2018-03-04T04:12:27.787Z,-6.10
2018-03-04T04:14:54.723Z,-5.80
2018-03-04T04:17:22.397Z,-6.00
2018-03-04T04:19:49.329Z,-6.00
2018-03-04T04:22:17.010Z,-6.00
2018-03-04T04:24:43.954Z,-6.10
2018-03-04T04:27:10.872Z,-6.00
2018-03-04T04:29:38.561Z,-6.10
2018-03-04T04:32:05.508Z,-5.80
2018-03-04T04:34:32.428Z,-6.00
2018-03-04T04:37:00.132Z,-6.10
2018-03-04T04:39:27.044Z,-6.20
2018-03-04T04:41:55.745Z,-5.80
2018-03-04T04:44:22.687Z,-5.90
2018-03-04T04:46:49.619Z,-6.10
2018-03-04T04:49:16.533Z,-6.00
2018-03-04T04:51:43.468Z,-6.10
2018-03-04T04:54:10.384Z,-6.10
2018-03-04T04:56:37.309Z,-5.80
2018-03-04T04:59:04.229Z,-6.00
2018-03-04T05:01:31.921Z,-5.80
2018-03-04T05:03:58.833Z,-5.90
2018-03-04T05:06:26.532Z,-6.20
2018-03-04T05:08:53.446Z,-5.80
2018-03-04T05:11:20.384Z,-6.10
2018-03-04T05:13:48.063Z,-5.80
2018-03-04T05:16:15.001Z,-6.00
2018-03-04T05:18:42.860Z,-6.20
2018-03-04T05:21:11.562Z,-6.20
2018-03-04T05:23:38.473Z,-6.00
2018-03-04T05:26:05.417Z,-6.20
2018-03-04T05:28:32.341Z,-6.20
2018-03-04T05:30:59.277Z,-6.00
2018-03-04T05:33:26.956Z,-6.00
2018-03-04T05:35:53.925Z,-6.30
2018-03-04T05:38:21.611Z,-6.10
2018-03-04T05:40:48.529Z,-5.80
2018-03-04T05:43:16.237Z,-6.10
2018-03-04T05:45:43.164Z,-5.80
2018-03-04T05:48:10.076Z,-6.10
2018-03-04T05:50:37.768Z,-6.10
2018-03-04T05:53:04.713Z,-5.80
2018-03-04T05:55:31.640Z,-6.20
2018-03-04T05:57:59.323Z,-5.90
2018-03-04T06:00:26.271Z,-6.10
2018-03-04T06:02:53.188Z,-6.00
2018-03-04T06:05:21.902Z,-5.80
2018-03-04T06:07:48.820Z,-5.80
2018-03-04T06:10:15.752Z,-6.00
2018-03-04T06:12:42.668Z,-6.10
2018-03-04T06:15:09.598Z,-6.00
2018-03-04T06:17:36.510Z,-5.90
2018-03-04T06:20:03.441Z,-5.80
2018-03-04T06:22:31.120Z,-5.90
2018-03-04T06:24:58.988Z,-5.70
2018-03-04T06:27:25.900Z,-5.80
2018-03-04T06:29:53.812Z,-5.70
2018-03-04T06:32:20.732Z,-5.70
2018-03-04T06:34:47.656Z,-5.50
2018-03-04T06:37:15.336Z,-5.30
2018-03-04T06:39:42.277Z,-5.30
2018-03-04T06:42:09.952Z,-5.10
2018-03-04T06:44:36.889Z,-5.20
2018-03-04T06:47:03.800Z,-5.00
2018-03-04T06:49:30.728Z,-5.00
2018-03-04T06:51:57.724Z,-5.00
2018-03-04T06:54:26.570Z,-4.90
2018-03-04T06:56:53.488Z,-4.90
2018-03-04T06:59:20.416Z,-4.90
2018-03-04T07:01:47.333Z,-5.00
2018-03-04T07:04:14.267Z,-5.00
2018-03-04T07:06:41.198Z,-4.90
2018-03-04T07:09:08.935Z,-4.80
2018-03-04T07:11:35.856Z,-4.70
2018-03-04T07:14:02.783Z,-4.60
2018-03-04T07:16:29.704Z,-4.50
2018-03-04T07:18:56.638Z,-4.50
2018-03-04T07:21:23.552Z,-4.40
2018-03-04T07:23:50.485Z,-4.40
2018-03-04T07:26:17.412Z,-4.50
2018-03-04T07:28:44.333Z,-4.50
2018-03-04T07:31:13.984Z,-4.40
2018-03-04T07:33:41.817Z,-4.30
2018-03-04T07:36:09.524Z,-4.10
2018-03-04T07:38:37.468Z,-4.30
2018-03-04T07:41:04.406Z,-4.20
2018-03-04T07:43:31.323Z,-4.20
2018-03-04T07:45:59.155Z,-4.00
2018-03-04T07:48:26.051Z,-3.70
2018-03-04T07:50:53.741Z,-3.40
2018-03-04T07:53:20.642Z,-3.30
2018-03-04T07:55:48.327Z,-3.10
2018-03-04T07:58:15.238Z,-3.00
2018-03-04T08:00:42.170Z,-3.10
2018-03-04T08:03:11.097Z,-3.00
2018-03-04T08:05:39.796Z,-3.00
2018-03-04T08:08:06.712Z,-2.80
2018-03-04T08:10:33.662Z,-3.00
2018-03-04T08:13:01.357Z,-2.80
2018-03-04T08:15:29.240Z,-2.70
2018-03-04T08:17:56.157Z,-2.80
2018-03-04T08:20:23.079Z,-3.10
2018-03-04T08:22:50.797Z,-3.50
2018-03-04T08:25:30.745Z,-3.20
2018-03-04T08:28:09.660Z,-3.40
2018-03-04T08:30:36.598Z,-3.40
2018-03-04T08:33:03.552Z,-3.10
2018-03-04T08:35:31.171Z,-2.70
2018-03-04T08:37:58.173Z,-2.50
2018-03-04T08:40:25.093Z,-2.60
2018-03-04T08:42:52.061Z,-2.30
2018-03-04T08:45:18.970Z,-2.10
2018-03-04T08:47:45.964Z,-2.20
2018-03-04T08:50:12.896Z,-2.20
2018-03-04T08:52:41.908Z,-2.40
2018-03-04T08:55:08.833Z,-2.60
2018-03-04T08:57:35.865Z,-2.60
2018-03-04T09:00:02.780Z,-2.40
2018-03-04T09:02:31.697Z,-2.30
2018-03-04T09:04:58.689Z,-2.10
2018-03-04T09:07:26.454Z,-2.00
2018-03-04T09:09:53.369Z,-1.90
2018-03-04T09:12:21.076Z,-1.90
2018-03-04T09:14:48.066Z,-1.90
2018-03-04T09:17:14.964Z,-2.20
2018-03-04T09:19:41.934Z,-2.00
2018-03-04T09:22:09.839Z,-1.90
2018-03-04T09:24:36.780Z,-1.50
2018-03-04T09:27:04.627Z,-1.10
2018-03-04T09:29:31.549Z,-1.20
2018-03-04T09:31:58.481Z,-1.50
2018-03-04T09:34:25.404Z,-1.30
2018-03-04T09:36:53.406Z,-1.50
2018-03-04T09:39:20.328Z,-1.60
2018-03-04T09:41:47.289Z,-1.40
2018-03-04T09:44:14.260Z,-1.50
2018-03-04T09:46:41.950Z,-1.20
2018-03-04T09:49:08.869Z,-1.10
2018-03-04T09:51:38.484Z,-1.30
2018-03-04T09:54:05.554Z,-1.40
2018-03-04T09:56:32.555Z,-1.00
2018-03-04T09:58:59.510Z,-1.10
2018-03-04T10:01:26.456Z,-1.30
2018-03-04T10:03:54.141Z,-1.00
2018-03-04T10:06:21.146Z,-0.80
2018-03-04T10:08:49.601Z,-0.80
2018-03-04T10:11:17.933Z,-0.90
2018-03-04T10:13:45.856Z,-0.80
2018-03-04T10:16:12.787Z,-0.70
2018-03-04T10:18:39.704Z,-0.40
2018-03-04T10:21:06.753Z,-0.80
2018-03-04T10:23:34.631Z,-1.20
2018-03-04T10:26:02.333Z,-1.30
2018-03-04T10:28:29.254Z,-0.90
2018-03-04T10:30:56.226Z,-1.40
2018-03-04T10:33:24.825Z,-1.70
2018-03-04T10:35:52.812Z,-1.70
2018-03-04T10:38:19.740Z,-1.70
2018-03-04T10:40:46.677Z,-1.70
2018-03-04T10:43:14.358Z,-1.60
2018-03-04T10:45:41.396Z,-1.30
2018-03-04T10:48:09.189Z,-1.30
2018-03-04T10:50:36.735Z,-1.20
2018-03-04T10:53:03.653Z,-1.60
2018-03-04T10:55:31.367Z,-1.50
2018-03-04T10:57:59.271Z,-1.50
2018-03-04T11:00:26.968Z,-1.30
2018-03-04T11:02:53.937Z,-1.10
2018-03-04T11:05:20.901Z,-1.40
2018-03-04T11:07:47.857Z,-1.70
2018-03-04T11:10:14.801Z,-1.50
2018-03-04T11:12:43.741Z,-1.30
2018-03-04T11:15:10.671Z,-1.40
2018-03-04T11:17:37.600Z,-1.40
2018-03-04T11:20:05.309Z,-1.30
2018-03-04T11:22:32.230Z,-1.20
2018-03-04T11:25:00.088Z,-1.30
2018-03-04T11:27:27.909Z,-1.40
2018-03-04T11:29:54.854Z,-1.20
2018-03-04T11:32:22.753Z,-1.30
2018-03-04T11:34:50.438Z,-1.00
2018-03-04T11:37:17.389Z,-0.90
2018-03-04T11:39:44.451Z,-1.00
2018-03-04T11:42:11.446Z,-1.00
2018-03-04T11:44:38.384Z,-1.00
2018-03-04T11:47:08.042Z,-0.80
2018-03-04T11:49:34.967Z,-0.80
2018-03-04T11:52:01.912Z,-0.40
2018-03-04T11:54:28.861Z,-0.30
2018-03-04T11:56:55.800Z,-0.40
2018-03-04T11:59:22.720Z,-0.30
2018-03-04T12:01:49.649Z,-0.70
2018-03-04T12:04:16.560Z,-0.90
2018-03-04T12:06:43.514Z,-0.80
2018-03-04T12:09:10.420Z,-1.00
2018-03-04T12:11:37.362Z,-0.80
2018-03-04T12:14:04.321Z,-0.80
2018-03-04T12:16:33.185Z,-0.80
2018-03-04T12:19:02.784Z,-0.70
2018-03-04T12:21:30.535Z,-1.00
2018-03-04T12:23:57.600Z,-1.00
2018-03-04T12:26:24.514Z,-0.90
2018-03-04T12:28:51.428Z,-0.90
2018-03-04T12:31:18.382Z,-0.80
2018-03-04T12:33:45.301Z,-0.90
2018-03-04T12:36:12.242Z,-0.80
2018-03-04T12:38:39.425Z,-0.60
2018-03-04T12:41:06.366Z,-0.40
2018-03-04T12:43:34.044Z,-0.40
2018-03-04T12:46:01.006Z,-0.30
2018-03-04T12:48:30.532Z,-0.70
2018-03-04T12:50:58.246Z,-0.80
2018-03-04T12:53:25.162Z,-0.80
2018-03-04T12:55:52.118Z,-0.70
2018-03-04T12:58:19.051Z,-0.90
2018-03-04T13:00:46.789Z,-0.70
2018-03-04T13:03:14.701Z,-0.80
2018-03-04T13:05:43.412Z,-0.50
2018-03-04T13:08:10.344Z,-0.40
2018-03-04T13:10:38.226Z,-0.10
2018-03-04T13:13:05.158Z,0.30
2018-03-04T13:15:32.135Z,0.30
2018-03-04T13:17:59.079Z,0.40
2018-03-04T13:20:26.025Z,0.30
2018-03-04T13:22:53.040Z,0.30
2018-03-04T13:25:20.918Z,0.30
2018-03-04T13:27:47.968Z,0.40
2018-03-04T13:30:15.103Z,1.10
2018-03-04T13:32:42.956Z,1.90
2018-03-04T13:35:11.645Z,2.90
2018-03-04T13:37:40.528Z,2.90
2018-03-04T13:40:09.230Z,2.70
2018-03-04T13:42:36.161Z,2.60
2018-03-04T13:45:03.841Z,3.00
2018-03-04T13:47:30.771Z,3.10
2018-03-04T13:49:57.689Z,2.60
2018-03-04T13:52:24.616Z,3.00
2018-03-04T13:54:53.229Z,2.30
2018-03-04T13:57:20.937Z,2.40
2018-03-04T13:59:47.848Z,2.30
2018-03-04T14:02:15.544Z,2.30
2018-03-04T14:04:43.522Z,2.50
2018-03-04T14:07:10.455Z,2.60
2018-03-04T14:09:37.380Z,2.20
2018-03-04T14:12:04.308Z,2.10
2018-03-04T14:14:33.033Z,1.90
2018-03-04T14:16:59.969Z,2.00
2018-03-04T14:19:26.907Z,1.80
2018-03-04T14:21:53.853Z,2.10
2018-03-04T14:24:22.716Z,2.70
2018-03-04T14:26:51.425Z,2.40
2018-03-04T14:29:18.344Z,2.40
2018-03-04T14:31:45.285Z,2.40
2018-03-04T14:34:12.972Z,2.90
2018-03-04T14:36:39.929Z,3.10
2018-03-04T14:39:06.840Z,3.20
2018-03-04T14:41:34.737Z,4.30
2018-03-04T14:44:01.714Z,4.60
2018-03-04T14:46:28.651Z,4.50
2018-03-04T14:48:55.566Z,3.90
2018-03-04T14:51:23.432Z,3.40
2018-03-04T14:53:50.427Z,3.60
2018-03-04T14:56:17.362Z,3.50
2018-03-04T14:58:44.271Z,4.50
2018-03-04T15:01:11.345Z,5.10
2018-03-04T15:03:38.311Z,5.10
2018-03-04T15:06:05.326Z,5.90
2018-03-04T15:08:33.053Z,6.00
2018-03-04T15:11:00.900Z,5.90
2018-03-04T15:13:27.817Z,6.10
2018-03-04T15:15:56.722Z,6.00
2018-03-04T15:18:24.404Z,7.20
2018-03-04T15:20:51.345Z,7.10
2018-03-04T15:23:19.240Z,6.80
2018-03-04T15:25:46.933Z,6.90
2018-03-04T15:28:14.549Z,6.80
2018-03-04T15:30:42.296Z,6.20
2018-03-04T15:33:09.212Z,6.20
2018-03-04T15:35:36.147Z,6.50
2018-03-04T15:38:03.141Z,7.00
2018-03-04T15:40:30.096Z,7.40
2018-03-04T15:42:57.775Z,7.10
2018-03-04T15:45:25.486Z,7.70
2018-03-04T15:47:52.417Z,7.60
2018-03-04T15:50:20.363Z,7.80
2018-03-04T15:52:47.296Z,7.60
2018-03-04T15:55:14.266Z,7.70
2018-03-04T15:57:41.245Z,6.70
2018-03-04T16:00:08.232Z,6.40
2018-03-04T16:02:35.136Z,5.70
2018-03-04T16:05:02.090Z,4.00
2018-03-04T16:07:29.020Z,2.90
2018-03-04T16:09:55.966Z,2.00
2018-03-04T16:12:23.650Z,1.10
2018-03-04T16:14:50.585Z,1.30
2018-03-04T16:17:17.550Z,0.80
2018-03-04T16:19:44.476Z,0.70
2018-03-04T16:22:11.405Z,0.70
2018-03-04T16:24:38.349Z,0.60
2018-03-04T16:27:05.274Z,0.60
2018-03-04T16:29:32.268Z,0.50
2018-03-04T16:31:59.196Z,0.50
2018-03-04T16:34:26.156Z,0.50
2018-03-04T16:36:53.895Z,0.50
2018-03-04T16:39:20.860Z,0.40
2018-03-04T16:41:47.825Z,0.50
2018-03-04T16:44:15.552Z,0.30
2018-03-04T16:46:43.469Z,0.40
2018-03-04T16:49:11.185Z,0.40
2018-03-04T16:51:38.100Z,0.40
2018-03-04T16:54:05.063Z,0.40
2018-03-04T16:56:33.010Z,0.30
2018-03-04T16:58:59.954Z,0.30
2018-03-04T17:01:26.859Z,0.30
2018-03-04T17:03:54.581Z,0.40
2018-03-04T17:06:21.544Z,0.50
2018-03-04T17:08:48.485Z,0.30
2018-03-04T17:11:15.413Z,0.30
2018-03-04T17:13:42.342Z,0.30
2018-03-04T17:16:09.328Z,0.30
2018-03-04T17:18:36.226Z,0.30
2018-03-04T17:21:03.137Z,0.30
2018-03-04T17:23:31.056Z,0.30
2018-03-04T17:25:57.985Z,0.30
2018-03-04T17:28:24.957Z,0.30
2018-03-04T17:30:51.887Z,0.30
2018-03-04T17:33:18.815Z,0.20
2018-03-04T17:35:46.701Z,0.30
2018-03-04T17:38:13.637Z,0.10
2018-03-04T17:40:41.514Z,0.30
2018-03-04T17:43:08.516Z,0.20
2018-03-04T17:45:36.203Z,0.30
2018-03-04T17:48:03.156Z,0.30
2018-03-04T17:50:30.209Z,0.30
2018-03-04T17:52:57.152Z,0.30
2018-03-04T17:55:24.069Z,0.40
2018-03-04T17:57:51.761Z,0.40
2018-03-04T18:00:18.684Z,0.50
2018-03-04T18:02:45.612Z,0.30
2018-03-04T18:05:13.289Z,0.40
2018-03-04T18:07:40.225Z,0.60
2018-03-04T18:10:07.132Z,0.30
2018-03-04T18:12:34.089Z,0.30
2018-03-04T18:15:01.001Z,0.30
2018-03-04T18:17:28.705Z,0.30
2018-03-04T18:19:56.448Z,0.30
2018-03-04T18:22:23.396Z,0.50
2018-03-04T18:24:50.325Z,0.30
2018-03-04T18:27:17.322Z,0.30
2018-03-04T18:29:45.006Z,0.40
2018-03-04T18:32:11.978Z,0.50
2018-03-04T18:34:38.933Z,0.40
2018-03-04T18:37:05.824Z,0.40
2018-03-04T18:39:32.744Z,0.40
2018-03-04T18:41:59.687Z,0.50
2018-03-04T18:44:28.138Z,0.50
2018-03-04T18:46:55.113Z,0.80
2018-03-04T18:49:22.804Z,0.50
2018-03-04T18:51:50.674Z,0.50
2018-03-04T18:54:17.581Z,0.50
2018-03-04T18:56:44.520Z,0.50
2018-03-04T18:59:11.439Z,0.50
2018-03-04T19:01:38.370Z,0.60
2018-03-04T19:04:05.284Z,0.60
2018-03-04T19:06:32.214Z,0.70
2018-03-04T19:08:59.898Z,0.70
2018-03-04T19:11:26.839Z,0.60
2018-03-04T19:13:53.766Z,0.70
2018-03-04T19:16:21.484Z,0.70
2018-03-04T19:18:48.412Z,0.80
2018-03-04T19:21:17.301Z,0.70
2018-03-04T19:23:44.243Z,0.70
2018-03-04T19:26:11.193Z,0.80
2018-03-04T19:28:38.113Z,0.70
2018-03-04T19:31:05.028Z,0.70
2018-03-04T19:33:32.924Z,0.70
2018-03-04T19:35:59.836Z,0.70
2018-03-04T19:38:26.775Z,0.80
2018-03-04T19:40:53.685Z,0.80
2018-03-04T19:43:20.619Z,0.80
2018-03-04T19:45:47.534Z,0.80
2018-03-04T19:48:15.230Z,0.80
2018-03-04T19:50:42.148Z,0.80
2018-03-04T19:53:09.843Z,0.80
2018-03-04T19:55:36.802Z,0.80
2018-03-04T19:58:03.724Z,0.80
2018-03-04T20:00:31.552Z,0.80
2018-03-04T20:02:59.256Z,0.80
2018-03-04T20:05:26.202Z,0.80
2018-03-04T20:07:53.146Z,0.80
2018-03-04T20:10:20.057Z,0.80
2018-03-04T20:12:47.760Z,0.80
2018-03-04T20:15:14.673Z,1.00
2018-03-04T20:17:41.612Z,0.80
2018-03-04T20:20:08.532Z,0.80
2018-03-04T20:22:35.463Z,0.80
2018-03-04T20:25:02.393Z,0.80
2018-03-04T20:27:29.346Z,0.90
2018-03-04T20:29:56.261Z,0.90
2018-03-04T20:32:23.209Z,0.80
2018-03-04T20:34:50.124Z,0.90
2018-03-04T20:37:17.080Z,0.80
2018-03-04T20:39:43.997Z,0.90
2018-03-04T20:42:10.926Z,0.90
2018-03-04T20:44:39.553Z,0.90
2018-03-04T20:47:07.299Z,0.90
2018-03-04T20:49:34.216Z,0.90
2018-03-04T20:52:01.191Z,0.90
2018-03-04T20:54:28.115Z,0.90
2018-03-04T20:56:56.949Z,0.90
2018-03-04T20:59:23.871Z,1.00
2018-03-04T21:01:50.806Z,0.90
2018-03-04T21:04:17.732Z,1.00
2018-03-04T21:06:44.661Z,1.00
2018-03-04T21:09:11.576Z,1.00
2018-03-04T21:11:38.504Z,0.90
2018-03-04T21:14:06.397Z,1.00
2018-03-04T21:16:34.091Z,1.00
2018-03-04T21:19:01.925Z,1.00
2018-03-04T21:21:29.621Z,0.90
2018-03-04T21:23:56.524Z,1.00
2018-03-04T21:26:24.208Z,1.00
2018-03-04T21:28:52.043Z,1.10
2018-03-04T21:31:18.965Z,1.00
2018-03-04T21:33:45.859Z,1.00
2018-03-04T21:36:12.792Z,1.00
2018-03-04T21:38:40.669Z,1.00
2018-03-04T21:41:07.603Z,1.00
2018-03-04T21:43:35.293Z,1.10
2018-03-04T21:46:02.224Z,1.30
2018-03-04T21:48:29.151Z,1.10
2018-03-04T21:50:57.743Z,1.10
2018-03-04T21:53:25.620Z,1.10
2018-03-04T21:55:52.562Z,1.00
2018-03-04T21:58:19.513Z,1.20
2018-03-04T22:00:46.422Z,1.10
2018-03-04T22:03:15.060Z,1.10
2018-03-04T22:05:43.804Z,1.30
2018-03-04T22:08:11.507Z,1.20
2018-03-04T22:10:38.458Z,1.40
2018-03-04T22:13:05.389Z,1.10
2018-03-04T22:15:32.329Z,1.20
2018-03-04T22:17:59.266Z,1.20
2018-03-04T22:20:26.181Z,1.20
2018-03-04T22:22:54.096Z,1.10
2018-03-04T22:25:22.039Z,1.10
2018-03-04T22:27:48.977Z,1.10
2018-03-04T22:30:16.669Z,1.00
2018-03-04T22:32:43.607Z,1.00
2018-03-04T22:35:10.574Z,1.00
2018-03-04T22:37:37.530Z,1.00
2018-03-04T22:40:04.454Z,1.00
2018-03-04T22:42:31.403Z,1.00
2018-03-04T22:44:58.336Z,1.00
2018-03-04T22:47:25.260Z,1.10
2018-03-04T22:49:52.190Z,1.00
2018-03-04T22:52:19.894Z,0.90
2018-03-04T22:54:46.859Z,0.90
2018-03-04T22:57:13.795Z,0.90
2018-03-04T22:59:40.736Z,0.90
2018-03-04T23:02:07.663Z,0.90
2018-03-04T23:04:34.564Z,0.90
2018-03-04T23:07:01.480Z,0.90
2018-03-04T23:09:29.392Z,0.90
2018-03-04T23:11:56.320Z,0.80
2018-03-04T23:14:24.203Z,0.90
2018-03-04T23:16:51.908Z,0.90
2018-03-04T23:19:18.832Z,0.90
2018-03-04T23:21:46.717Z,0.90
2018-03-04T23:24:13.634Z,0.90
2018-03-04T23:26:40.573Z,0.90
2018-03-04T23:29:07.493Z,1.00
2018-03-04T23:31:35.384Z,1.00
2018-03-04T23:34:02.301Z,1.00
2018-03-04T23:36:30.009Z,1.10
2018-03-04T23:38:56.920Z,1.20
2018-03-04T23:41:24.624Z,1.10
2018-03-04T23:43:51.532Z,1.30
2018-03-04T23:46:19.236Z,1.20
2018-03-04T23:48:47.153Z,1.20
2018-03-04T23:51:14.987Z,1.30
2018-03-04T23:53:42.747Z,1.50
2018-03-04T23:56:09.661Z,1.30
2018-03-04T23:58:36.565Z,1.20
